sensor_id;sensor_type;location;lat;lon;timestamp;pressure;altitude;pressure_sealevel;temperature;humidity
60465;BME280;46314;52.392;9.758;2023-07-20T00:02:16;100566.38;;;19.24;62.08
60465;BME280;46314;52.392;9.758;2023-07-20T00:04:43;100563.38;;;19.17;62.71
60465;BME280;46314;52.392;9.758;2023-07-20T00:07:10;100561.84;;;19.03;63.13
60465;BME280;46314;52.392;9.758;2023-07-20T00:09:36;100567.03;;;19.17;62.58
60465;BME280;46314;52.392;9.758;2023-07-20T00:12:03;100560.75;;;19.08;62.93
60465;BME280;46314;52.392;9.758;2023-07-20T00:14:30;100560.31;;;19.22;62.22
60465;BME280;46314;52.392;9.758;2023-07-20T00:16:56;100548.25;;;19.21;62.68
60465;BME280;46314;52.392;9.758;2023-07-20T00:19:25;100548.88;;;19.15;62.51
60465;BME280;46314;52.392;9.758;2023-07-20T00:21:52;100549.59;;;18.96;63.85
60465;BME280;46314;52.392;9.758;2023-07-20T00:24:19;100547.41;;;19.05;63.90
60465;BME280;46314;52.392;9.758;2023-07-20T00:26:45;100541.50;;;19.10;62.95
60465;BME280;46314;52.392;9.758;2023-07-20T00:29:12;100544.50;;;19.01;63.94
60465;BME280;46314;52.392;9.758;2023-07-20T00:31:39;100541.78;;;19.05;63.84
60465;BME280;46314;52.392;9.758;2023-07-20T00:34:06;100542.00;;;19.12;63.18
60465;BME280;46314;52.392;9.758;2023-07-20T00:36:33;100539.63;;;19.30;62.66
60465;BME280;46314;52.392;9.758;2023-07-20T00:39:00;100541.69;;;19.01;63.15
60465;BME280;46314;52.392;9.758;2023-07-20T00:41:26;100536.38;;;18.96;63.96
60465;BME280;46314;52.392;9.758;2023-07-20T00:43:53;100541.50;;;18.94;64.12
60465;BME280;46314;52.392;9.758;2023-07-20T00:46:21;100536.38;;;18.96;63.18
60465;BME280;46314;52.392;9.758;2023-07-20T00:48:49;100533.88;;;18.79;64.55
60465;BME280;46314;52.392;9.758;2023-07-20T00:51:15;100536.16;;;18.89;64.66
60465;BME280;46314;52.392;9.758;2023-07-20T00:53:43;100538.34;;;18.96;64.41
60465;BME280;46314;52.392;9.758;2023-07-20T00:56:10;100531.78;;;18.76;65.04
60465;BME280;46314;52.392;9.758;2023-07-20T00:58:37;100529.09;;;18.95;63.98
60465;BME280;46314;52.392;9.758;2023-07-20T01:01:04;100524.38;;;19.15;64.16
60465;BME280;46314;52.392;9.758;2023-07-20T01:03:33;100521.66;;;18.87;65.12
60465;BME280;46314;52.392;9.758;2023-07-20T01:06:08;100528.59;;;18.77;64.88
60465;BME280;46314;52.392;9.758;2023-07-20T01:08:42;100532.09;;;19.02;64.18
60465;BME280;46314;52.392;9.758;2023-07-20T01:11:17;100535.81;;;19.06;64.16
60465;BME280;46314;52.392;9.758;2023-07-20T01:13:46;100531.59;;;18.68;64.91
60465;BME280;46314;52.392;9.758;2023-07-20T01:16:13;100534.59;;;18.76;64.92
60465;BME280;46314;52.392;9.758;2023-07-20T01:18:39;100543.72;;;18.72;65.19
60465;BME280;46314;52.392;9.758;2023-07-20T01:21:09;100539.50;;;18.79;65.08
60465;BME280;46314;52.392;9.758;2023-07-20T01:23:56;100539.63;;;18.82;64.46
60465;BME280;46314;52.392;9.758;2023-07-20T01:26:38;100537.13;;;18.81;64.76
60465;BME280;46314;52.392;9.758;2023-07-20T01:29:41;100539.94;;;18.81;65.03
60465;BME280;46314;52.392;9.758;2023-07-20T01:32:11;100538.25;;;19.08;64.71
60465;BME280;46314;52.392;9.758;2023-07-20T01:34:39;100536.28;;;19.08;63.75
60465;BME280;46314;52.392;9.758;2023-07-20T01:37:07;100542.19;;;18.59;65.69
60465;BME280;46314;52.392;9.758;2023-07-20T01:39:34;100536.81;;;18.54;66.11
60465;BME280;46314;52.392;9.758;2023-07-20T01:42:02;100542.09;;;18.71;65.68
60465;BME280;46314;52.392;9.758;2023-07-20T01:44:28;100541.28;;;18.71;65.81
60465;BME280;46314;52.392;9.758;2023-07-20T01:46:55;100528.97;;;18.76;65.16
60465;BME280;46314;52.392;9.758;2023-07-20T01:49:22;100540.91;;;18.72;66.28
60465;BME280;46314;52.392;9.758;2023-07-20T01:51:49;100543.31;;;18.86;65.35
60465;BME280;46314;52.392;9.758;2023-07-20T01:54:15;100547.72;;;18.71;65.88
60465;BME280;46314;52.392;9.758;2023-07-20T01:56:42;100543.72;;;18.72;65.31
60465;BME280;46314;52.392;9.758;2023-07-20T01:59:08;100538.28;;;18.80;65.99
60465;BME280;46314;52.392;9.758;2023-07-20T02:01:35;100542.66;;;18.77;65.69
60465;BME280;46314;52.392;9.758;2023-07-20T02:04:02;100539.81;;;19.05;64.48
60465;BME280;46314;52.392;9.758;2023-07-20T02:06:30;100542.72;;;18.93;64.95
60465;BME280;46314;52.392;9.758;2023-07-20T02:08:56;100534.50;;;18.72;66.13
60465;BME280;46314;52.392;9.758;2023-07-20T02:11:23;100528.78;;;18.68;66.56
60465;BME280;46314;52.392;9.758;2023-07-20T02:13:49;100527.06;;;18.80;65.93
60465;BME280;46314;52.392;9.758;2023-07-20T02:16:16;100525.34;;;18.75;65.48
60465;BME280;46314;52.392;9.758;2023-07-20T02:18:43;100524.09;;;18.88;65.62
60465;BME280;46314;52.392;9.758;2023-07-20T02:21:09;100525.97;;;18.68;65.98
60465;BME280;46314;52.392;9.758;2023-07-20T02:23:37;100519.34;;;18.77;65.09
60465;BME280;46314;52.392;9.758;2023-07-20T02:26:03;100530.66;;;18.80;65.03
60465;BME280;46314;52.392;9.758;2023-07-20T02:28:30;100530.47;;;18.57;66.21
60465;BME280;46314;52.392;9.758;2023-07-20T02:30:56;100530.66;;;18.64;66.15
60465;BME280;46314;52.392;9.758;2023-07-20T02:33:23;100524.47;;;18.87;65.38
60465;BME280;46314;52.392;9.758;2023-07-20T02:35:49;100537.38;;;18.60;66.34
60465;BME280;46314;52.392;9.758;2023-07-20T02:38:16;100532.19;;;18.62;66.22
60465;BME280;46314;52.392;9.758;2023-07-20T02:40:44;100538.19;;;18.60;66.09
60465;BME280;46314;52.392;9.758;2023-07-20T02:43:10;100534.56;;;18.60;66.44
60465;BME280;46314;52.392;9.758;2023-07-20T02:45:40;100540.06;;;18.56;66.56
60465;BME280;46314;52.392;9.758;2023-07-20T02:48:06;100538.69;;;18.50;67.06
60465;BME280;46314;52.392;9.758;2023-07-20T02:50:33;100537.50;;;18.79;65.91
60465;BME280;46314;52.392;9.758;2023-07-20T02:52:59;100529.38;;;18.62;66.55
60465;BME280;46314;52.392;9.758;2023-07-20T02:55:26;100539.06;;;18.64;65.88
60465;BME280;46314;52.392;9.758;2023-07-20T02:57:54;100538.38;;;18.67;65.68
60465;BME280;46314;52.392;9.758;2023-07-20T03:00:21;100535.09;;;18.65;65.70
60465;BME280;46314;52.392;9.758;2023-07-20T03:02:48;100541.06;;;18.92;65.21
60465;BME280;46314;52.392;9.758;2023-07-20T03:05:15;100538.63;;;19.06;63.85
60465;BME280;46314;52.392;9.758;2023-07-20T03:07:41;100535.44;;;18.92;64.18
60465;BME280;46314;52.392;9.758;2023-07-20T03:10:08;100538.22;;;18.48;66.04
60465;BME280;46314;52.392;9.758;2023-07-20T03:12:35;100546.56;;;18.44;67.18
60465;BME280;46314;52.392;9.758;2023-07-20T03:15:04;100540.13;;;18.44;66.66
60465;BME280;46314;52.392;9.758;2023-07-20T03:17:31;100537.81;;;18.62;65.65
60465;BME280;46314;52.392;9.758;2023-07-20T03:19:58;100543.56;;;18.37;66.94
60465;BME280;46314;52.392;9.758;2023-07-20T03:22:24;100546.41;;;18.53;66.95
60465;BME280;46314;52.392;9.758;2023-07-20T03:24:50;100545.44;;;18.61;66.20
60465;BME280;46314;52.392;9.758;2023-07-20T03:27:17;100548.25;;;18.61;66.28
60465;BME280;46314;52.392;9.758;2023-07-20T03:29:44;100544.81;;;18.96;64.26
60465;BME280;46314;52.392;9.758;2023-07-20T03:32:11;100545.41;;;18.89;65.19
60465;BME280;46314;52.392;9.758;2023-07-20T03:34:38;100549.53;;;18.80;65.37
60465;BME280;46314;52.392;9.758;2023-07-20T03:37:05;100554.22;;;18.60;66.23
60465;BME280;46314;52.392;9.758;2023-07-20T03:39:31;100552.47;;;18.55;66.25
60465;BME280;46314;52.392;9.758;2023-07-20T03:41:58;100550.41;;;18.68;65.46
60465;BME280;46314;52.392;9.758;2023-07-20T03:44:25;100540.88;;;18.57;66.17
60465;BME280;46314;52.392;9.758;2023-07-20T03:46:51;100551.50;;;18.63;66.27
60465;BME280;46314;52.392;9.758;2023-07-20T03:49:19;100543.59;;;18.53;66.37
60465;BME280;46314;52.392;9.758;2023-07-20T03:51:46;100544.91;;;18.71;65.36
60465;BME280;46314;52.392;9.758;2023-07-20T03:54:12;100551.25;;;18.68;65.40
60465;BME280;46314;52.392;9.758;2023-07-20T03:56:39;100548.25;;;18.61;65.38
60465;BME280;46314;52.392;9.758;2023-07-20T03:59:05;100547.31;;;18.57;65.66
60465;BME280;46314;52.392;9.758;2023-07-20T04:01:32;100550.69;;;18.63;65.31
60465;BME280;46314;52.392;9.758;2023-07-20T04:03:58;100549.16;;;18.65;65.49
60465;BME280;46314;52.392;9.758;2023-07-20T04:06:26;100544.53;;;18.73;65.11
60465;BME280;46314;52.392;9.758;2023-07-20T04:08:52;100551.25;;;18.68;65.04
60465;BME280;46314;52.392;9.758;2023-07-20T04:11:19;100553.91;;;18.77;65.15
60465;BME280;46314;52.392;9.758;2023-07-20T04:13:45;100552.41;;;18.67;65.11
60465;BME280;46314;52.392;9.758;2023-07-20T04:16:12;100556.69;;;18.61;65.17
60465;BME280;46314;52.392;9.758;2023-07-20T04:18:38;100562.03;;;18.66;65.02
60465;BME280;46314;52.392;9.758;2023-07-20T04:21:07;100558.03;;;18.67;65.28
60465;BME280;46314;52.392;9.758;2023-07-20T04:23:35;100566.72;;;18.62;66.42
60465;BME280;46314;52.392;9.758;2023-07-20T04:26:01;100568.16;;;18.56;67.61
60465;BME280;46314;52.392;9.758;2023-07-20T04:28:28;100568.16;;;18.56;67.41
60465;BME280;46314;52.392;9.758;2023-07-20T04:30:54;100575.19;;;18.50;68.02
60465;BME280;46314;52.392;9.758;2023-07-20T04:33:21;100566.13;;;18.41;69.56
60465;BME280;46314;52.392;9.758;2023-07-20T04:35:49;100571.28;;;18.39;70.12
60465;BME280;46314;52.392;9.758;2023-07-20T04:38:17;100578.31;;;18.32;70.45
60465;BME280;46314;52.392;9.758;2023-07-20T04:40:46;100580.66;;;18.59;69.10
60465;BME280;46314;52.392;9.758;2023-07-20T04:43:13;100575.69;;;18.11;71.44
60465;BME280;46314;52.392;9.758;2023-07-20T04:45:40;100581.66;;;18.10;71.39
60465;BME280;46314;52.392;9.758;2023-07-20T04:48:09;100583.75;;;18.13;71.43
60465;BME280;46314;52.392;9.758;2023-07-20T04:50:36;100586.34;;;18.06;71.55
60465;BME280;46314;52.392;9.758;2023-07-20T04:53:02;100588.34;;;18.05;71.92
60465;BME280;46314;52.392;9.758;2023-07-20T04:55:29;100586.13;;;17.98;72.59
60465;BME280;46314;52.392;9.758;2023-07-20T04:57:57;100585.78;;;18.00;73.35
60465;BME280;46314;52.392;9.758;2023-07-20T05:00:27;100587.06;;;17.90;73.66
60465;BME280;46314;52.392;9.758;2023-07-20T05:02:54;100588.59;;;18.00;73.45
60465;BME280;46314;52.392;9.758;2023-07-20T05:05:20;100592.66;;;18.03;74.37
60465;BME280;46314;52.392;9.758;2023-07-20T05:07:47;100589.06;;;17.90;75.03
60465;BME280;46314;52.392;9.758;2023-07-20T05:10:14;100586.81;;;17.83;75.77
60465;BME280;46314;52.392;9.758;2023-07-20T05:12:40;100595.25;;;17.95;75.71
60465;BME280;46314;52.392;9.758;2023-07-20T05:15:09;100595.72;;;17.97;75.93
60465;BME280;46314;52.392;9.758;2023-07-20T05:17:36;100586.25;;;18.02;75.97
60465;BME280;46314;52.392;9.758;2023-07-20T05:20:03;100595.22;;;18.08;75.40
60465;BME280;46314;52.392;9.758;2023-07-20T05:22:29;100596.19;;;18.00;76.30
60465;BME280;46314;52.392;9.758;2023-07-20T05:24:56;100603.66;;;17.95;77.00
60465;BME280;46314;52.392;9.758;2023-07-20T05:27:23;100599.66;;;18.21;73.97
60465;BME280;46314;52.392;9.758;2023-07-20T05:29:49;100603.44;;;17.88;76.22
60465;BME280;46314;52.392;9.758;2023-07-20T05:32:17;100597.69;;;17.97;76.87
60465;BME280;46314;52.392;9.758;2023-07-20T05:34:43;100604.63;;;17.87;77.22
60465;BME280;46314;52.392;9.758;2023-07-20T05:37:10;100603.22;;;17.93;76.43
60465;BME280;46314;52.392;9.758;2023-07-20T05:39:40;100595.59;;;17.94;76.97
60465;BME280;46314;52.392;9.758;2023-07-20T05:42:07;100608.91;;;18.09;76.76
60465;BME280;46314;52.392;9.758;2023-07-20T05:44:33;100608.19;;;18.25;74.36
60465;BME280;46314;52.392;9.758;2023-07-20T05:47:00;100607.19;;;18.05;75.69
60465;BME280;46314;52.392;9.758;2023-07-20T05:49:28;100613.00;;;18.12;75.69
60465;BME280;46314;52.392;9.758;2023-07-20T05:51:55;100612.53;;;17.97;75.29
60465;BME280;46314;52.392;9.758;2023-07-20T05:54:21;100622.63;;;17.98;75.63
60465;BME280;46314;52.392;9.758;2023-07-20T05:56:48;100613.63;;;18.46;73.87
60465;BME280;46314;52.392;9.758;2023-07-20T05:59:14;100615.22;;;18.06;74.89
60465;BME280;46314;52.392;9.758;2023-07-20T06:01:41;100618.44;;;17.92;76.53
60465;BME280;46314;52.392;9.758;2023-07-20T06:04:07;100626.84;;;18.05;76.73
60465;BME280;46314;52.392;9.758;2023-07-20T06:06:35;100615.09;;;18.15;76.10
60465;BME280;46314;52.392;9.758;2023-07-20T06:09:02;100616.31;;;18.02;76.42
60465;BME280;46314;52.392;9.758;2023-07-20T06:11:29;100614.88;;;18.08;75.37
60465;BME280;46314;52.392;9.758;2023-07-20T06:13:55;100613.88;;;17.88;76.28
60465;BME280;46314;52.392;9.758;2023-07-20T06:16:22;100607.44;;;18.00;75.80
60465;BME280;46314;52.392;9.758;2023-07-20T06:18:49;100620.78;;;18.31;74.95
60465;BME280;46314;52.392;9.758;2023-07-20T06:21:15;100613.00;;;18.12;75.29
60465;BME280;46314;52.392;9.758;2023-07-20T06:23:43;100621.69;;;18.07;75.50
60465;BME280;46314;52.392;9.758;2023-07-20T06:26:10;100609.97;;;18.17;75.17
60465;BME280;46314;52.392;9.758;2023-07-20T06:28:36;100615.94;;;18.15;75.38
60465;BME280;46314;52.392;9.758;2023-07-20T06:31:03;100619.09;;;18.14;74.94
60465;BME280;46314;52.392;9.758;2023-07-20T06:33:30;100630.94;;;18.48;73.55
60465;BME280;46314;52.392;9.758;2023-07-20T06:35:57;100624.75;;;18.70;71.85
60465;BME280;46314;52.392;9.758;2023-07-20T06:38:24;100631.72;;;18.48;72.76
60465;BME280;46314;52.392;9.758;2023-07-20T06:40:54;100631.63;;;18.45;72.32
60465;BME280;46314;52.392;9.758;2023-07-20T06:43:21;100638.94;;;18.62;72.35
60465;BME280;46314;52.392;9.758;2023-07-20T06:45:51;100642.19;;;18.35;74.41
60465;BME280;46314;52.392;9.758;2023-07-20T06:48:18;100644.31;;;18.39;74.18
60465;BME280;46314;52.392;9.758;2023-07-20T06:50:44;100653.19;;;18.41;73.10
60465;BME280;46314;52.392;9.758;2023-07-20T06:53:11;100652.75;;;19.55;69.53
60465;BME280;46314;52.392;9.758;2023-07-20T06:55:37;100652.41;;;19.41;69.33
60465;BME280;46314;52.392;9.758;2023-07-20T06:58:09;100654.03;;;19.42;69.25
60465;BME280;46314;52.392;9.758;2023-07-20T07:00:35;100656.56;;;19.47;68.12
60465;BME280;46314;52.392;9.758;2023-07-20T07:03:02;100652.84;;;19.59;68.33
60465;BME280;46314;52.392;9.758;2023-07-20T07:05:28;100653.22;;;19.41;68.62
60465;BME280;46314;52.392;9.758;2023-07-20T07:08:02;100657.44;;;19.03;68.75
60465;BME280;46314;52.392;9.758;2023-07-20T07:10:28;100661.53;;;19.22;67.03
60465;BME280;46314;52.392;9.758;2023-07-20T07:12:55;100656.34;;;20.19;64.56
60465;BME280;46314;52.392;9.758;2023-07-20T07:15:26;100653.41;;;19.80;66.39
60465;BME280;46314;52.392;9.758;2023-07-20T07:17:53;100648.13;;;20.11;63.88
60465;BME280;46314;52.392;9.758;2023-07-20T07:20:20;100647.56;;;20.05;64.98
60465;BME280;46314;52.392;9.758;2023-07-20T07:22:47;100655.50;;;20.54;62.20
60465;BME280;46314;52.392;9.758;2023-07-20T07:25:14;100654.59;;;20.50;63.04
60465;BME280;46314;52.392;9.758;2023-07-20T07:27:43;100652.56;;;20.67;63.04
60465;BME280;46314;52.392;9.758;2023-07-20T07:30:11;100651.03;;;20.34;62.81
60465;BME280;46314;52.392;9.758;2023-07-20T07:32:39;100642.53;;;19.79;64.33
60465;BME280;46314;52.392;9.758;2023-07-20T07:35:06;100648.22;;;19.98;65.19
60465;BME280;46314;52.392;9.758;2023-07-20T07:37:33;100661.31;;;19.75;65.10
60465;BME280;46314;52.392;9.758;2023-07-20T07:40:12;100659.09;;;19.68;65.14
60465;BME280;46314;52.392;9.758;2023-07-20T07:42:39;100663.19;;;19.71;64.63
60465;BME280;46314;52.392;9.758;2023-07-20T07:45:07;100671.91;;;20.88;59.90
60465;BME280;46314;52.392;9.758;2023-07-20T07:47:33;100667.44;;;22.79;53.70
60465;BME280;46314;52.392;9.758;2023-07-20T07:50:01;100673.63;;;21.35;56.38
60465;BME280;46314;52.392;9.758;2023-07-20T07:52:28;100667.13;;;20.69;58.86
60465;BME280;46314;52.392;9.758;2023-07-20T07:57:21;100666.91;;;20.07;62.08
60465;BME280;46314;52.392;9.758;2023-07-20T07:59:48;100675.66;;;19.85;62.48
60465;BME280;46314;52.392;9.758;2023-07-20T08:02:14;100667.19;;;20.01;60.34
60465;BME280;46314;52.392;9.758;2023-07-20T08:04:41;100673.94;;;19.97;61.84
60465;BME280;46314;52.392;9.758;2023-07-20T08:07:09;100677.44;;;20.10;61.46
60465;BME280;46314;52.392;9.758;2023-07-20T08:09:36;100682.34;;;20.48;56.99
60465;BME280;46314;52.392;9.758;2023-07-20T08:12:03;100671.47;;;19.95;56.18
60465;BME280;46314;52.392;9.758;2023-07-20T08:14:30;100679.66;;;20.36;56.52
60465;BME280;46314;52.392;9.758;2023-07-20T08:16:57;100677.00;;;20.43;56.09
60465;BME280;46314;52.392;9.758;2023-07-20T08:19:24;100679.16;;;20.14;56.57
60465;BME280;46314;52.392;9.758;2023-07-20T08:21:51;100685.28;;;20.36;56.34
60465;BME280;46314;52.392;9.758;2023-07-20T08:24:19;100684.03;;;21.08;56.07
60465;BME280;46314;52.392;9.758;2023-07-20T08:26:45;100677.34;;;20.96;56.48
60465;BME280;46314;52.392;9.758;2023-07-20T08:29:12;100684.84;;;20.89;53.89
60465;BME280;46314;52.392;9.758;2023-07-20T08:31:38;100687.56;;;21.05;53.56
60465;BME280;46314;52.392;9.758;2023-07-20T08:34:05;100680.94;;;20.74;53.94
60465;BME280;46314;52.392;9.758;2023-07-20T08:36:46;100686.84;;;20.69;54.28
60465;BME280;46314;52.392;9.758;2023-07-20T08:39:12;100688.66;;;20.61;55.57
60465;BME280;46314;52.392;9.758;2023-07-20T08:41:40;100685.34;;;20.94;53.94
60465;BME280;46314;52.392;9.758;2023-07-20T08:44:09;100695.91;;;20.78;53.07
60465;BME280;46314;52.392;9.758;2023-07-20T08:46:36;100686.50;;;20.54;53.51
60465;BME280;46314;52.392;9.758;2023-07-20T08:49:04;100687.97;;;20.84;53.50
60465;BME280;46314;52.392;9.758;2023-07-20T08:51:30;100689.00;;;21.14;54.54
60465;BME280;46314;52.392;9.758;2023-07-20T08:53:58;100687.84;;;21.19;54.65
60465;BME280;46314;52.392;9.758;2023-07-20T08:56:25;100688.91;;;20.91;53.30
60465;BME280;46314;52.392;9.758;2023-07-20T08:58:54;100689.88;;;21.18;50.93
60465;BME280;46314;52.392;9.758;2023-07-20T09:01:21;100695.50;;;21.18;52.50
60465;BME280;46314;52.392;9.758;2023-07-20T09:03:48;100699.28;;;21.07;51.49
60465;BME280;46314;52.392;9.758;2023-07-20T09:06:15;100694.19;;;20.73;51.05
60465;BME280;46314;52.392;9.758;2023-07-20T09:08:42;100689.34;;;20.38;54.10
60465;BME280;46314;52.392;9.758;2023-07-20T09:11:12;100684.59;;;20.58;53.24
60465;BME280;46314;52.392;9.758;2023-07-20T09:13:39;100680.50;;;20.56;54.44
60465;BME280;46314;52.392;9.758;2023-07-20T09:16:07;100686.03;;;20.68;54.45
60465;BME280;46314;52.392;9.758;2023-07-20T09:18:33;100689.22;;;21.06;52.46
60465;BME280;46314;52.392;9.758;2023-07-20T09:21:03;100678.75;;;21.06;52.66
60465;BME280;46314;52.392;9.758;2023-07-20T09:23:31;100669.88;;;20.85;52.10
60465;BME280;46314;52.392;9.758;2023-07-20T09:25:58;100680.47;;;21.11;51.65
60465;BME280;46314;52.392;9.758;2023-07-20T09:28:24;100679.03;;;21.44;49.19
60465;BME280;46314;52.392;9.758;2023-07-20T09:30:51;100680.25;;;21.43;48.36
60465;BME280;46314;52.392;9.758;2023-07-20T09:33:22;100676.56;;;21.19;49.00
60465;BME280;46314;52.392;9.758;2023-07-20T09:35:52;100685.34;;;20.94;49.03
60465;BME280;46314;52.392;9.758;2023-07-20T09:38:21;100675.84;;;21.03;47.90
60465;BME280;46314;52.392;9.758;2023-07-20T09:40:50;100676.53;;;21.38;45.38
60465;BME280;46314;52.392;9.758;2023-07-20T09:43:20;100677.94;;;21.71;46.35
60465;BME280;46314;52.392;9.758;2023-07-20T09:45:50;100679.03;;;21.44;46.78
60465;BME280;46314;52.392;9.758;2023-07-20T09:48:25;100682.03;;;21.51;47.52
60465;BME280;46314;52.392;9.758;2023-07-20T09:50:56;100685.28;;;21.76;47.79
60465;BME280;46314;52.392;9.758;2023-07-20T09:53:24;100680.13;;;21.82;47.96
60465;BME280;46314;52.392;9.758;2023-07-20T09:55:52;100682.84;;;21.51;46.88
60465;BME280;46314;52.392;9.758;2023-07-20T09:58:19;100680.97;;;22.09;44.79
60465;BME280;46314;52.392;9.758;2023-07-20T10:00:46;100680.78;;;21.98;43.79
60465;BME280;46314;52.392;9.758;2023-07-20T10:03:19;100680.88;;;21.79;45.80
60465;BME280;46314;52.392;9.758;2023-07-20T10:05:53;100686.91;;;21.54;45.83
60465;BME280;46314;52.392;9.758;2023-07-20T10:08:23;100680.50;;;21.80;45.67
60465;BME280;46314;52.392;9.758;2023-07-20T10:10:53;100689.31;;;21.52;45.36
60465;BME280;46314;52.392;9.758;2023-07-20T10:13:25;100693.94;;;21.87;45.00
60465;BME280;46314;52.392;9.758;2023-07-20T10:15:54;100688.16;;;22.03;44.77
60465;BME280;46314;52.392;9.758;2023-07-20T10:18:25;100693.56;;;21.88;46.15
60465;BME280;46314;52.392;9.758;2023-07-20T10:20:56;100692.94;;;21.75;44.53
60465;BME280;46314;52.392;9.758;2023-07-20T10:23:28;100697.41;;;21.77;45.58
60465;BME280;46314;52.392;9.758;2023-07-20T10:25:55;100691.66;;;21.96;44.63
60465;BME280;46314;52.392;9.758;2023-07-20T10:28:22;100676.41;;;21.31;45.28
60465;BME280;46314;52.392;9.758;2023-07-20T10:30:49;100684.16;;;21.58;45.55
60465;BME280;46314;52.392;9.758;2023-07-20T10:33:16;100683.84;;;21.20;46.77
60465;BME280;46314;52.392;9.758;2023-07-20T10:35:55;100679.59;;;21.72;46.15
60465;BME280;46314;52.392;9.758;2023-07-20T10:38:40;100680.84;;;21.52;46.87
60465;BME280;46314;52.392;9.758;2023-07-20T10:41:18;100678.44;;;21.77;46.56
60465;BME280;46314;52.392;9.758;2023-07-20T10:43:47;100678.34;;;21.97;45.81
60465;BME280;46314;52.392;9.758;2023-07-20T10:46:14;100674.28;;;21.94;45.55
60465;BME280;46314;52.392;9.758;2023-07-20T10:49:02;100669.66;;;22.09;45.20
60465;BME280;46314;52.392;9.758;2023-07-20T10:51:30;100671.25;;;22.06;44.09
60465;BME280;46314;52.392;9.758;2023-07-20T10:54:07;100671.47;;;21.94;44.70
60465;BME280;46314;52.392;9.758;2023-07-20T10:56:34;100672.75;;;22.00;43.84
60465;BME280;46314;52.392;9.758;2023-07-20T10:59:01;100675.78;;;22.38;42.80
60465;BME280;46314;52.392;9.758;2023-07-20T11:01:28;100669.44;;;21.94;43.26
60465;BME280;46314;52.392;9.758;2023-07-20T11:03:57;100668.63;;;21.94;43.31
60465;BME280;46314;52.392;9.758;2023-07-20T11:06:32;100667.22;;;22.30;42.96
60465;BME280;46314;52.392;9.758;2023-07-20T11:09:04;100659.56;;;22.65;41.80
60465;BME280;46314;52.392;9.758;2023-07-20T11:11:36;100661.44;;;22.84;42.17
60465;BME280;46314;52.392;9.758;2023-07-20T11:14:04;100659.50;;;22.92;42.17
60465;BME280;46314;52.392;9.758;2023-07-20T11:16:38;100663.97;;;22.93;42.45
60465;BME280;46314;52.392;9.758;2023-07-20T11:19:13;100661.09;;;23.23;41.39
60465;BME280;46314;52.392;9.758;2023-07-20T11:21:43;100662.28;;;22.54;42.50
60465;BME280;46314;52.392;9.758;2023-07-20T11:24:27;100667.25;;;22.98;41.70
60465;BME280;46314;52.392;9.758;2023-07-20T11:26:54;100673.59;;;23.18;40.75
60465;BME280;46314;52.392;9.758;2023-07-20T11:29:22;100667.69;;;22.66;41.46
60465;BME280;46314;52.392;9.758;2023-07-20T11:31:57;100673.44;;;22.43;41.03
60465;BME280;46314;52.392;9.758;2023-07-20T11:34:24;100667.72;;;22.70;41.71
60465;BME280;46314;52.392;9.758;2023-07-20T11:36:52;100665.91;;;23.19;40.28
60465;BME280;46314;52.392;9.758;2023-07-20T11:39:22;100672.78;;;22.87;40.87
60465;BME280;46314;52.392;9.758;2023-07-20T11:41:50;100668.47;;;23.31;40.34
60465;BME280;46314;52.392;9.758;2023-07-20T11:44:17;100668.31;;;23.58;40.31
60465;BME280;46314;52.392;9.758;2023-07-20T11:46:44;100670.88;;;22.99;41.53
60465;BME280;46314;52.392;9.758;2023-07-20T11:49:12;100660.53;;;22.76;42.11
60465;BME280;46314;52.392;9.758;2023-07-20T11:51:39;100668.41;;;22.60;42.22
60465;BME280;46314;52.392;9.758;2023-07-20T11:54:09;100660.28;;;22.88;42.51
60465;BME280;46314;52.392;9.758;2023-07-20T11:56:36;100670.78;;;23.22;41.16
60465;BME280;46314;52.392;9.758;2023-07-20T11:59:02;100669.88;;;23.52;40.71
60465;BME280;46314;52.392;9.758;2023-07-20T12:01:30;100665.31;;;22.72;41.00
60465;BME280;46314;52.392;9.758;2023-07-20T12:03:57;100665.53;;;22.56;41.26
60465;BME280;46314;52.392;9.758;2023-07-20T12:06:24;100664.00;;;22.96;40.45
60465;BME280;46314;52.392;9.758;2023-07-20T12:08:55;100654.91;;;23.55;39.37
60465;BME280;46314;52.392;9.758;2023-07-20T12:11:33;100653.31;;;23.54;39.65
60465;BME280;46314;52.392;9.758;2023-07-20T12:14:00;100657.31;;;23.49;41.31
60465;BME280;46314;52.392;9.758;2023-07-20T12:16:42;100643.50;;;23.44;41.11
60465;BME280;46314;52.392;9.758;2023-07-20T12:19:10;100647.00;;;23.30;41.03
60465;BME280;46314;52.392;9.758;2023-07-20T12:21:38;100662.56;;;23.10;40.09
60465;BME280;46314;52.392;9.758;2023-07-20T12:24:05;100654.88;;;23.51;38.64
60465;BME280;46314;52.392;9.758;2023-07-20T12:26:34;100644.84;;;22.82;38.05
60465;BME280;46314;52.392;9.758;2023-07-20T12:29:01;100652.91;;;22.80;37.40
60465;BME280;46314;52.392;9.758;2023-07-20T12:31:27;100651.53;;;22.37;39.16
60465;BME280;46314;52.392;9.758;2023-07-20T12:33:54;100653.16;;;22.68;39.81
60465;BME280;46314;52.392;9.758;2023-07-20T12:36:21;100652.06;;;23.10;40.36
60465;BME280;46314;52.392;9.758;2023-07-20T12:38:48;100652.66;;;22.93;40.35
60465;BME280;46314;52.392;9.758;2023-07-20T12:41:15;100649.72;;;23.19;40.20
60465;BME280;46314;52.392;9.758;2023-07-20T12:43:43;100651.34;;;23.17;40.56
60465;BME280;46314;52.392;9.758;2023-07-20T12:46:11;100648.44;;;23.54;39.73
60465;BME280;46314;52.392;9.758;2023-07-20T12:48:39;100645.50;;;23.88;39.22
60465;BME280;46314;52.392;9.758;2023-07-20T12:51:06;100647.22;;;23.52;39.13
60465;BME280;46314;52.392;9.758;2023-07-20T12:53:33;100644.22;;;23.34;39.44
60465;BME280;46314;52.392;9.758;2023-07-20T12:55:59;100639.91;;;23.47;39.62
60465;BME280;46314;52.392;9.758;2023-07-20T12:58:26;100632.13;;;23.37;40.16